createdAt,value
2023-04-10T00:01:36.277Z,9.30
2023-04-10T00:04:05.175Z,9.30
2023-04-10T00:06:35.047Z,9.20
2023-04-10T00:09:03.363Z,9.20
2023-04-10T00:11:31.723Z,9.10
2023-04-10T00:13:59.956Z,9.20
2023-04-10T00:16:28.296Z,9.20
2023-04-10T00:18:56.502Z,9.20
2023-04-10T00:21:24.726Z,9.10
2023-04-10T00:23:54.469Z,9.10
2023-04-10T00:26:23.920Z,9.10
2023-04-10T00:28:52.216Z,9.10
2023-04-10T00:31:20.639Z,9.10
2023-04-10T00:33:48.942Z,9.10
2023-04-10T00:36:17.338Z,9.10
2023-04-10T00:38:45.695Z,9.10
2023-04-10T00:41:15.424Z,9.00
2023-04-10T00:43:43.788Z,9.00
2023-04-10T00:46:12.599Z,9.00
2023-04-10T00:48:41.344Z,8.90
2023-04-10T00:51:09.813Z,9.00
2023-04-10T00:53:38.116Z,8.90
2023-04-10T00:56:08.081Z,8.80
2023-04-10T00:58:37.649Z,8.70
2023-04-10T01:01:06.372Z,8.70
2023-04-10T01:03:34.921Z,8.70
2023-04-10T01:06:12.042Z,8.70
2023-04-10T01:08:50.028Z,8.60
2023-04-10T01:11:27.823Z,8.60
2023-04-10T01:14:07.772Z,8.60
2023-04-10T01:16:43.162Z,8.60
2023-04-10T01:19:27.268Z,8.50
2023-04-10T01:21:57.088Z,8.50
2023-04-10T01:24:49.438Z,8.50
2023-04-10T01:27:38.196Z,8.50
2023-04-10T01:30:10.434Z,8.50
2023-04-10T01:32:41.029Z,8.50
2023-04-10T01:35:10.859Z,8.50
2023-04-10T01:37:43.818Z,8.50
2023-04-10T01:40:16.785Z,8.50
2023-04-10T01:42:53.110Z,8.50
2023-04-10T01:45:28.171Z,8.50
2023-04-10T01:47:57.462Z,8.40
2023-04-10T01:50:28.541Z,8.40
2023-04-10T01:52:57.850Z,8.40
2023-04-10T01:55:27.751Z,8.40
2023-04-10T01:57:56.582Z,8.40
2023-04-10T02:00:26.421Z,8.40
2023-04-10T02:02:54.833Z,8.40
2023-04-10T02:05:25.845Z,8.40
2023-04-10T02:08:03.490Z,8.40
2023-04-10T02:10:42.036Z,8.30
2023-04-10T02:13:12.871Z,8.30
2023-04-10T02:15:47.789Z,8.30
2023-04-10T02:18:19.247Z,8.30
2023-04-10T02:20:47.729Z,8.30
2023-04-10T02:23:19.285Z,8.30
2023-04-10T02:25:47.689Z,8.30
2023-04-10T02:28:15.978Z,8.30
2023-04-10T02:30:45.710Z,8.30
2023-04-10T02:33:13.961Z,8.30
2023-04-10T02:35:42.298Z,8.20
2023-04-10T02:38:10.541Z,8.20
2023-04-10T02:40:38.786Z,8.20
2023-04-10T02:43:06.987Z,8.20
2023-04-10T02:45:35.223Z,8.20
2023-04-10T02:48:07.013Z,8.20
2023-04-10T02:50:35.519Z,8.20
2023-04-10T02:53:03.771Z,8.20
2023-04-10T02:55:31.977Z,8.20
2023-04-10T02:58:00.211Z,8.20
2023-04-10T03:00:29.014Z,8.20
2023-04-10T03:02:57.293Z,8.10
2023-04-10T03:05:27.117Z,8.10
2023-04-10T03:07:55.603Z,8.10
2023-04-10T03:10:24.642Z,8.20
2023-04-10T03:12:52.884Z,8.10
2023-04-10T03:15:21.292Z,8.10
2023-04-10T03:17:49.603Z,8.10
2023-04-10T03:20:18.030Z,8.10
2023-04-10T03:22:47.696Z,8.10
2023-04-10T03:25:16.036Z,8.10
2023-04-10T03:27:44.419Z,8.10
2023-04-10T03:30:13.087Z,8.10
2023-04-10T03:32:43.047Z,8.10
2023-04-10T03:35:11.931Z,8.10
2023-04-10T03:37:40.168Z,8.00
2023-04-10T03:40:12.077Z,8.00
2023-04-10T03:42:40.420Z,8.00
2023-04-10T03:45:10.281Z,8.00
2023-04-10T03:47:38.697Z,8.10
2023-04-10T03:50:08.165Z,8.00
2023-04-10T03:52:36.402Z,8.00
2023-04-10T03:55:04.863Z,8.00
2023-04-10T03:57:34.466Z,8.00
2023-04-10T04:00:02.893Z,8.00
2023-04-10T04:02:31.184Z,7.90
2023-04-10T04:04:59.547Z,7.90
2023-04-10T04:07:28.133Z,7.90
2023-04-10T04:09:56.628Z,7.90
2023-04-10T04:12:24.978Z,7.90
2023-04-10T04:14:54.906Z,7.80
2023-04-10T04:17:23.178Z,7.80
2023-04-10T04:19:51.398Z,7.90
2023-04-10T04:22:21.489Z,7.80
2023-04-10T04:24:49.746Z,7.80
2023-04-10T04:27:18.009Z,7.80
2023-04-10T04:29:46.659Z,7.80
2023-04-10T04:32:16.900Z,7.70
2023-04-10T04:34:45.262Z,7.70
2023-04-10T04:37:13.513Z,7.70
2023-04-10T04:39:41.667Z,7.70
2023-04-10T04:42:09.888Z,7.60
2023-04-10T04:44:38.164Z,7.60
2023-04-10T04:47:06.439Z,7.60
2023-04-10T04:49:36.023Z,7.60
2023-04-10T04:52:04.253Z,7.50
2023-04-10T04:54:32.492Z,7.50
2023-04-10T04:57:01.659Z,7.60
2023-04-10T04:59:29.913Z,7.50
2023-04-10T05:01:58.652Z,7.50
2023-04-10T05:04:27.230Z,7.50
2023-04-10T05:06:57.140Z,7.50
2023-04-10T05:09:25.475Z,7.50
2023-04-10T05:11:54.557Z,7.40
2023-04-10T05:14:23.220Z,7.50
2023-04-10T05:16:51.661Z,7.40
2023-04-10T05:19:19.934Z,7.40
2023-04-10T05:21:51.775Z,7.40
2023-04-10T05:24:21.577Z,7.40
2023-04-10T05:26:49.926Z,7.40
2023-04-10T05:29:18.279Z,7.40
2023-04-10T05:31:46.545Z,7.40
2023-04-10T05:34:14.862Z,7.50
2023-04-10T05:36:43.069Z,7.50
2023-04-10T05:39:11.386Z,7.60
2023-04-10T05:41:41.550Z,7.60
2023-04-10T05:44:09.942Z,7.70
2023-04-10T05:46:38.172Z,7.80
2023-04-10T05:49:06.475Z,7.80
2023-04-10T05:51:34.766Z,7.90
2023-04-10T05:54:03.032Z,7.80
2023-04-10T05:56:31.309Z,7.90
2023-04-10T05:59:00.969Z,7.90
2023-04-10T06:01:29.165Z,7.90
2023-04-10T06:03:57.579Z,8.00
2023-04-10T06:06:27.414Z,8.20
2023-04-10T06:08:55.948Z,8.30
2023-04-10T06:11:24.268Z,8.50
2023-04-10T06:13:52.571Z,8.60
2023-04-10T06:16:22.313Z,8.80
2023-04-10T06:18:52.798Z,8.80
2023-04-10T06:21:21.440Z,8.90
2023-04-10T06:23:49.656Z,8.90
2023-04-10T06:26:18.158Z,9.00
2023-04-10T06:28:46.562Z,9.10
2023-04-10T06:31:14.982Z,9.10
2023-04-10T06:33:45.243Z,9.10
2023-04-10T06:36:13.534Z,9.20
2023-04-10T06:38:41.796Z,9.30
2023-04-10T06:41:10.519Z,9.40
2023-04-10T06:43:40.613Z,9.50
2023-04-10T06:46:09.185Z,9.50
2023-04-10T06:48:37.431Z,9.50
2023-04-10T06:51:07.975Z,9.60
2023-04-10T06:53:36.312Z,9.70
2023-04-10T06:56:04.992Z,9.80
2023-04-10T06:58:33.251Z,9.80
2023-04-10T07:01:04.835Z,9.90
2023-04-10T07:03:33.861Z,10.00
2023-04-10T07:06:03.382Z,10.00
2023-04-10T07:08:33.145Z,10.10
2023-04-10T07:11:01.430Z,10.20
2023-04-10T07:13:29.826Z,10.20
2023-04-10T07:15:58.143Z,10.30
2023-04-10T07:18:26.620Z,10.40
2023-04-10T07:20:55.356Z,10.60
2023-04-10T07:23:23.614Z,10.60
2023-04-10T07:25:53.517Z,10.70
2023-04-10T07:28:21.751Z,10.80
2023-04-10T07:30:49.966Z,10.90
2023-04-10T07:33:18.380Z,10.90
2023-04-10T07:35:46.734Z,10.90
2023-04-10T07:38:15.085Z,10.90
2023-04-10T07:40:43.281Z,10.90
2023-04-10T07:43:13.001Z,10.90
2023-04-10T07:45:42.040Z,10.90
2023-04-10T07:48:10.392Z,10.80
2023-04-10T07:50:38.649Z,10.90
2023-04-10T07:53:08.062Z,10.90
2023-04-10T07:55:40.119Z,11.00
2023-04-10T07:58:08.412Z,11.00
2023-04-10T08:00:38.772Z,11.10
2023-04-10T08:03:07.553Z,11.20
2023-04-10T08:05:36.476Z,11.10
2023-04-10T08:08:04.954Z,11.20
2023-04-10T08:10:33.558Z,11.20
2023-04-10T08:13:01.940Z,11.20
2023-04-10T08:15:30.398Z,11.20
2023-04-10T08:18:00.116Z,11.30
2023-04-10T08:20:28.936Z,11.40
2023-04-10T08:23:03.022Z,11.50
2023-04-10T08:25:34.555Z,11.60
2023-04-10T08:28:02.875Z,11.90
2023-04-10T08:30:31.261Z,12.10
2023-04-10T08:33:01.355Z,12.40
2023-04-10T08:35:29.736Z,12.50
2023-04-10T08:38:12.704Z,12.80
2023-04-10T08:40:44.653Z,12.90
2023-04-10T08:43:13.181Z,12.90
2023-04-10T08:45:42.614Z,13.20
2023-04-10T08:48:13.540Z,13.20
2023-04-10T08:50:44.230Z,13.30
2023-04-10T08:53:15.436Z,13.30
2023-04-10T08:55:43.616Z,13.20
2023-04-10T08:58:13.772Z,13.40
2023-04-10T09:00:42.455Z,13.50
2023-04-10T09:03:14.289Z,13.40
2023-04-10T09:05:42.752Z,13.50
2023-04-10T09:08:12.284Z,13.40
2023-04-10T09:10:40.616Z,13.40
2023-04-10T09:13:08.962Z,13.40
2023-04-10T09:15:59.116Z,13.50
2023-04-10T09:18:47.208Z,13.50
2023-04-10T09:21:18.351Z,13.60
2023-04-10T09:23:48.359Z,13.70
2023-04-10T09:26:28.464Z,13.80
2023-04-10T09:29:02.508Z,13.90
2023-04-10T09:31:36.393Z,14.00
2023-04-10T09:34:15.492Z,14.10
2023-04-10T09:36:45.268Z,14.10
2023-04-10T09:39:14.285Z,14.20
2023-04-10T09:41:50.828Z,14.30
2023-04-10T09:44:21.617Z,14.30
2023-04-10T09:46:50.105Z,14.40
2023-04-10T09:49:19.782Z,14.40
2023-04-10T09:51:49.651Z,14.50
2023-04-10T09:54:17.917Z,14.60
2023-04-10T09:56:48.655Z,14.50
2023-04-10T09:59:18.833Z,14.50
2023-04-10T10:01:47.507Z,14.60
2023-04-10T10:04:17.389Z,14.60
2023-04-10T10:06:47.603Z,14.70
2023-04-10T10:09:17.148Z,14.80
2023-04-10T10:11:45.470Z,14.80
2023-04-10T10:14:18.849Z,14.70
2023-04-10T10:16:51.486Z,14.70
2023-04-10T10:19:26.646Z,14.90
2023-04-10T10:21:57.426Z,14.80
2023-04-10T10:24:27.589Z,14.80
2023-04-10T10:26:57.219Z,14.80
2023-04-10T10:29:26.009Z,14.80
2023-04-10T10:31:55.365Z,14.80
2023-04-10T10:34:24.751Z,14.90
2023-04-10T10:36:53.396Z,14.90
2023-04-10T10:39:35.265Z,14.90
2023-04-10T10:42:10.691Z,14.90
2023-04-10T10:44:49.028Z,15.00
2023-04-10T10:47:21.953Z,15.00
2023-04-10T10:49:57.825Z,15.00
2023-04-10T10:52:44.253Z,15.00
2023-04-10T10:55:41.112Z,15.00
2023-04-10T10:58:11.299Z,15.10
2023-04-10T11:01:20.269Z,15.10
2023-04-10T11:03:49.044Z,15.10
2023-04-10T11:06:19.573Z,15.20
2023-04-10T11:08:50.206Z,15.30
2023-04-10T11:11:23.287Z,15.40
2023-04-10T11:14:18.449Z,15.50
2023-04-10T11:16:48.946Z,15.60
2023-04-10T11:19:22.646Z,15.70
2023-04-10T11:22:15.581Z,15.80
2023-04-10T11:25:02.588Z,15.90
2023-04-10T11:27:49.483Z,16.00
2023-04-10T11:30:32.706Z,16.30
2023-04-10T11:33:02.099Z,16.50
2023-04-10T11:35:31.998Z,16.70
2023-04-10T11:38:14.621Z,16.80
2023-04-10T11:40:57.096Z,16.90
2023-04-10T11:43:26.768Z,17.00
2023-04-10T11:46:06.171Z,17.00
2023-04-10T11:48:34.884Z,17.00
2023-04-10T11:51:10.194Z,16.90
2023-04-10T11:53:38.768Z,17.20
2023-04-10T11:56:12.920Z,17.40
2023-04-10T11:58:42.650Z,17.80
2023-04-10T12:01:14.313Z,18.20
2023-04-10T12:03:44.884Z,18.20
2023-04-10T12:06:14.824Z,18.20
2023-04-10T12:08:46.037Z,18.30
2023-04-10T12:11:14.682Z,18.30
2023-04-10T12:13:44.286Z,18.20
2023-04-10T12:16:13.146Z,18.00
2023-04-10T12:18:41.808Z,17.90
2023-04-10T12:21:10.193Z,17.90
2023-04-10T12:23:40.180Z,17.90
2023-04-10T12:26:14.601Z,17.80
2023-04-10T12:28:53.282Z,17.70
2023-04-10T12:31:29.365Z,17.70
2023-04-10T12:33:58.527Z,17.60
2023-04-10T12:36:30.101Z,17.50
2023-04-10T12:38:58.980Z,17.60
2023-04-10T12:41:29.739Z,17.60
2023-04-10T12:44:11.741Z,17.60
2023-04-10T12:46:41.612Z,17.60
2023-04-10T12:49:15.478Z,17.50
2023-04-10T12:51:46.015Z,17.40
2023-04-10T12:54:29.864Z,17.50
2023-04-10T12:56:58.257Z,17.40
2023-04-10T12:59:28.163Z,17.50
2023-04-10T13:01:57.043Z,17.70
2023-04-10T13:04:28.344Z,17.80
2023-04-10T13:06:57.156Z,17.80
2023-04-10T13:09:25.419Z,17.80
2023-04-10T13:11:53.694Z,18.00
2023-04-10T13:14:22.705Z,17.90
2023-04-10T13:16:52.378Z,17.80
2023-04-10T13:19:20.629Z,18.00
2023-04-10T13:21:50.745Z,18.00
2023-04-10T13:24:19.069Z,17.80
2023-04-10T13:26:47.361Z,17.80
2023-04-10T13:29:15.619Z,17.80
2023-04-10T13:31:44.027Z,17.80
2023-04-10T13:34:13.771Z,17.80
2023-04-10T13:36:42.079Z,17.80
2023-04-10T13:39:10.368Z,17.90
2023-04-10T13:41:38.596Z,17.80
2023-04-10T13:44:07.060Z,17.70
2023-04-10T13:46:35.326Z,17.70
2023-04-10T13:49:06.169Z,17.60
2023-04-10T13:51:35.867Z,17.50
2023-04-10T13:54:04.932Z,17.70
2023-04-10T13:56:33.214Z,17.80
2023-04-10T13:59:01.459Z,17.80
2023-04-10T14:01:29.875Z,17.70
2023-04-10T14:03:58.402Z,17.70
2023-04-10T14:06:27.187Z,17.70
2023-04-10T14:08:57.026Z,17.50
2023-04-10T14:11:25.384Z,17.50
2023-04-10T14:13:53.752Z,17.50
2023-04-10T14:16:22.025Z,17.50
2023-04-10T14:18:50.401Z,17.50
2023-04-10T14:21:20.573Z,17.40
2023-04-10T14:23:49.238Z,17.40
2023-04-10T14:26:18.970Z,17.40
2023-04-10T14:28:47.346Z,17.40
2023-04-10T14:31:15.973Z,17.30
2023-04-10T14:33:44.355Z,17.30
2023-04-10T14:36:12.729Z,17.40
2023-04-10T14:38:41.037Z,17.50
2023-04-10T14:41:09.356Z,17.50
2023-04-10T14:43:39.414Z,17.40
2023-04-10T14:46:08.431Z,17.30
2023-04-10T14:48:36.722Z,17.30
2023-04-10T14:51:05.625Z,17.40
2023-04-10T14:53:33.996Z,17.30
2023-04-10T14:56:02.304Z,17.30
2023-04-10T14:58:30.664Z,17.40
2023-04-10T15:01:00.392Z,17.30
2023-04-10T15:03:28.777Z,17.30
2023-04-10T15:06:01.083Z,17.30
2023-04-10T15:08:29.405Z,17.30
2023-04-10T15:10:57.726Z,17.30
2023-04-10T15:13:26.081Z,17.30
2023-04-10T15:15:54.485Z,17.30
2023-04-10T15:18:25.529Z,17.20
2023-04-10T15:20:55.308Z,17.20
2023-04-10T15:23:23.665Z,17.10
2023-04-10T15:25:52.394Z,17.00
2023-04-10T15:28:20.694Z,16.90
2023-04-10T15:30:51.962Z,16.70
2023-04-10T15:33:21.732Z,16.60
2023-04-10T15:35:51.487Z,16.50
2023-04-10T15:38:19.870Z,16.30
2023-04-10T15:40:48.153Z,16.20
2023-04-10T15:43:16.629Z,16.00
2023-04-10T15:45:44.977Z,15.80
2023-04-10T15:48:13.386Z,15.60
2023-04-10T15:50:43.055Z,15.40
2023-04-10T15:53:12.753Z,15.30
2023-04-10T15:55:41.476Z,15.20
2023-04-10T15:58:09.711Z,15.10
2023-04-10T16:00:37.969Z,15.00
2023-04-10T16:03:06.996Z,15.00
2023-04-10T16:05:35.445Z,14.90
2023-04-10T16:08:04.387Z,14.80
2023-04-10T16:10:34.118Z,14.80
2023-04-10T16:13:04.386Z,14.80
2023-04-10T16:15:36.538Z,14.80
2023-04-10T16:18:06.051Z,14.80
2023-04-10T16:20:34.636Z,14.80
2023-04-10T16:23:03.120Z,14.80
2023-04-10T16:25:32.884Z,14.80
2023-04-10T16:28:02.592Z,14.80
2023-04-10T16:30:30.790Z,14.80
2023-04-10T16:32:59.068Z,14.80
2023-04-10T16:35:27.550Z,14.80
2023-04-10T16:37:56.022Z,14.70
2023-04-10T16:40:27.596Z,14.70
2023-04-10T16:42:57.253Z,14.70
2023-04-10T16:45:25.572Z,14.70
2023-04-10T16:47:53.883Z,14.60
2023-04-10T16:50:22.193Z,14.50
2023-04-10T16:52:50.608Z,14.60
2023-04-10T16:55:19.210Z,14.60
2023-04-10T16:57:47.493Z,14.50
2023-04-10T17:00:18.271Z,14.50
2023-04-10T17:02:48.678Z,14.50
2023-04-10T17:05:16.982Z,14.50
2023-04-10T17:07:45.320Z,14.50
2023-04-10T17:10:13.656Z,14.40
2023-04-10T17:12:42.522Z,14.30
2023-04-10T17:15:12.454Z,14.20
2023-04-10T17:17:42.175Z,14.10
2023-04-10T17:20:11.623Z,14.10
2023-04-10T17:22:40.724Z,14.10
2023-04-10T17:25:10.077Z,14.10
2023-04-10T17:27:40.492Z,14.00
2023-04-10T17:30:13.519Z,14.00
2023-04-10T17:32:43.452Z,13.90
2023-04-10T17:35:11.770Z,13.90
2023-04-10T17:37:40.064Z,13.90
2023-04-10T17:40:10.563Z,13.90
2023-04-10T17:42:38.773Z,13.90
2023-04-10T17:45:08.612Z,13.90
2023-04-10T17:47:37.217Z,13.90
2023-04-10T17:50:08.996Z,13.90
2023-04-10T17:52:37.332Z,13.90
2023-04-10T17:55:06.568Z,13.90
2023-04-10T17:57:34.859Z,13.90
2023-04-10T18:00:03.482Z,13.80
2023-04-10T18:02:31.951Z,13.80
2023-04-10T18:05:03.546Z,13.70
2023-04-10T18:07:33.587Z,13.60
2023-04-10T18:10:01.845Z,13.50
2023-04-10T18:12:30.332Z,13.50
2023-04-10T18:14:58.521Z,13.40
2023-04-10T18:17:26.911Z,13.40
2023-04-10T18:19:56.582Z,13.20
2023-04-10T18:22:24.922Z,13.10
2023-04-10T18:24:55.199Z,13.00
2023-04-10T18:27:23.573Z,12.90
2023-04-10T18:29:51.936Z,12.80
2023-04-10T18:32:20.554Z,12.70
2023-04-10T18:34:49.803Z,12.70
2023-04-10T18:37:18.097Z,12.50
2023-04-10T18:39:46.332Z,12.30
2023-04-10T18:42:16.016Z,12.30
2023-04-10T18:44:44.329Z,12.20
2023-04-10T18:47:12.667Z,12.20
2023-04-10T18:49:41.044Z,12.20
2023-04-10T18:52:09.434Z,12.10
2023-04-10T18:54:37.907Z,12.20
2023-04-10T18:57:07.348Z,12.10
2023-04-10T18:59:38.992Z,12.00
2023-04-10T19:02:08.932Z,12.00
2023-04-10T19:04:37.526Z,12.00
2023-04-10T19:07:06.008Z,12.00
2023-04-10T19:09:34.339Z,11.90
2023-04-10T19:12:02.746Z,11.90
2023-04-10T19:14:30.974Z,11.80
2023-04-10T19:17:05.913Z,11.80
2023-04-10T19:19:34.868Z,11.70
2023-04-10T19:22:03.130Z,11.50
2023-04-10T19:24:33.618Z,11.50
2023-04-10T19:27:02.498Z,11.50
2023-04-10T19:29:31.300Z,11.50
2023-04-10T19:32:00.889Z,11.50
2023-04-10T19:34:29.213Z,11.50
2023-04-10T19:36:57.512Z,11.50
2023-04-10T19:39:25.779Z,11.50
2023-04-10T19:41:56.213Z,11.50
2023-04-10T19:44:24.671Z,11.50
2023-04-10T19:46:53.091Z,11.50
2023-04-10T19:49:22.944Z,11.50
2023-04-10T19:51:51.390Z,11.50
2023-04-10T19:54:19.621Z,11.50
2023-04-10T19:56:47.852Z,11.50
2023-04-10T19:59:16.176Z,11.50
2023-04-10T20:01:44.582Z,11.50
2023-04-10T20:04:13.070Z,11.40
2023-04-10T20:06:43.150Z,11.30
2023-04-10T20:09:11.838Z,11.30
2023-04-10T20:11:40.065Z,11.30
2023-04-10T20:14:08.383Z,11.20
2023-04-10T20:16:36.913Z,11.10
2023-04-10T20:19:05.694Z,11.00
2023-04-10T20:21:34.727Z,11.00
2023-04-10T20:24:04.730Z,10.90
2023-04-10T20:26:33.624Z,10.80
2023-04-10T20:29:02.048Z,10.70
2023-04-10T20:31:31.663Z,10.70
2023-04-10T20:34:01.691Z,10.60
2023-04-10T20:36:30.107Z,10.50
2023-04-10T20:38:58.532Z,10.50
2023-04-10T20:41:28.445Z,10.40
2023-04-10T20:43:57.478Z,10.40
2023-04-10T20:46:31.317Z,10.30
2023-04-10T20:49:00.137Z,10.30
2023-04-10T20:51:28.917Z,10.30
2023-04-10T20:53:57.217Z,10.20
2023-04-10T20:56:33.194Z,10.20
2023-04-10T20:59:11.270Z,10.20
2023-04-10T21:01:39.997Z,10.20
2023-04-10T21:04:08.574Z,10.20
2023-04-10T21:06:36.953Z,10.20
2023-04-10T21:09:05.925Z,10.20
2023-04-10T21:11:35.663Z,10.20
2023-04-10T21:14:03.906Z,10.20
2023-04-10T21:16:32.279Z,10.20
2023-04-10T21:19:00.703Z,10.20
2023-04-10T21:21:30.375Z,10.20
2023-04-10T21:23:58.758Z,10.20
2023-04-10T21:26:27.259Z,10.20
2023-04-10T21:28:57.046Z,10.20
2023-04-10T21:31:25.335Z,10.10
2023-04-10T21:33:53.654Z,10.10
2023-04-10T21:36:21.941Z,10.10
2023-04-10T21:38:50.198Z,10.10
2023-04-10T21:41:18.533Z,10.10
2023-04-10T21:43:46.787Z,10.10
2023-04-10T21:46:16.420Z,10.10
2023-04-10T21:48:44.735Z,10.10
2023-04-10T21:51:13.014Z,10.10
2023-04-10T21:53:41.303Z,10.10
2023-04-10T21:56:10.044Z,10.10
2023-04-10T21:58:38.742Z,10.20
2023-04-10T22:01:08.430Z,10.20
2023-04-10T22:03:38.634Z,10.20
2023-04-10T22:06:07.448Z,10.20
2023-04-10T22:08:38.311Z,10.20
2023-04-10T22:11:07.414Z,10.20
2023-04-10T22:13:35.688Z,10.20
2023-04-10T22:16:05.373Z,10.20
2023-04-10T22:18:33.640Z,10.20
2023-04-10T22:21:03.343Z,10.20
2023-04-10T22:23:32.478Z,10.20
2023-04-10T22:26:01.507Z,10.20
2023-04-10T22:28:29.996Z,10.20
2023-04-10T22:30:58.384Z,10.20
2023-04-10T22:33:26.676Z,10.20
2023-04-10T22:35:54.949Z,10.10
2023-04-10T22:38:24.682Z,10.20
2023-04-10T22:40:55.881Z,10.20
2023-04-10T22:43:24.072Z,10.20
2023-04-10T22:45:52.328Z,10.20
2023-04-10T22:48:20.754Z,10.20
2023-04-10T22:50:49.040Z,10.20
2023-04-10T22:53:17.301Z,10.20
2023-04-10T22:55:46.861Z,10.20
2023-04-10T22:58:15.116Z,10.20
2023-04-10T23:00:43.291Z,10.20
2023-04-10T23:03:11.754Z,10.20
2023-04-10T23:05:40.100Z,10.20
2023-04-10T23:08:08.448Z,10.20
2023-04-10T23:10:36.663Z,10.20
2023-04-10T23:13:06.417Z,10.20
2023-04-10T23:15:35.069Z,10.20
2023-04-10T23:18:03.356Z,10.20
2023-04-10T23:20:31.661Z,10.20
2023-04-10T23:22:59.861Z,10.20
2023-04-10T23:25:28.084Z,10.20
2023-04-10T23:27:56.355Z,10.20
2023-04-10T23:30:26.270Z,10.20
2023-04-10T23:32:54.639Z,10.20
2023-04-10T23:35:23.119Z,10.20
2023-04-10T23:37:51.642Z,10.20
2023-04-10T23:40:20.635Z,10.20
2023-04-10T23:42:48.807Z,10.20
2023-04-10T23:45:17.035Z,10.20
2023-04-10T23:47:47.313Z,10.20
2023-04-10T23:50:17.096Z,10.20
2023-04-10T23:52:50.755Z,10.20
2023-04-10T23:55:19.208Z,10.20
2023-04-10T23:57:47.443Z,10.20
